Time;durP1;ratioP1;P1;durP2;ratioP2;P2;SDS_P1;SDS_P2;PMS_P1;PMS_P2;Temp;Humidity;BMP_temperature;BMP_pressure;BME280_temperature;BME280_humidity;BME280_pressure;Samples;Min_cycle;Max_cycle;Signal;HPM_P1;HPM_P2
2023/02/08 00:00:39;;;;;;;36.33;13.13;;;29.00;74.60;;;;;;5087518;28;20058;-57
2023/02/08 00:03:05;;;;;;;41.35;13.13;;;29.00;74.70;;;;;;5087253;28;20024;-58
2023/02/08 00:05:35;;;;;;;35.90;11.30;;;29.00;74.90;;;;;;5087604;28;20363;-60
2023/02/08 00:08:02;;;;;;;26.98;11.00;;;29.00;75.10;;;;;;5086843;28;20032;-59
2023/02/08 00:10:29;;;;;;;28.08;10.35;;;28.90;75.10;;;;;;5087044;28;20083;-56
2023/02/08 00:12:55;;;;;;;26.90;10.27;;;28.90;75.30;;;;;;5087466;28;20020;-56
2023/02/08 00:15:22;;;;;;;35.53;9.73;;;28.90;75.50;;;;;;5086822;28;20028;-60
2023/02/08 00:17:49;;;;;;;23.98;8.50;;;28.90;75.50;;;;;;5086985;28;20047;-56
2023/02/08 00:20:16;;;;;;;64.35;10.50;;;28.90;75.70;;;;;;5086594;28;20092;-60
2023/02/08 00:22:43;;;;;;;32.22;8.48;;;28.90;75.70;;;;;;5086404;28;20240;-61
2023/02/08 00:25:10;;;;;;;34.70;7.93;;;28.90;75.80;;;;;;5087338;28;20028;-59
2023/02/08 00:27:37;;;;;;;29.73;7.55;;;28.90;75.70;;;;;;5086819;28;20037;-60
2023/02/08 00:30:04;;;;;;;28.85;7.60;;;28.90;75.60;;;;;;5086679;28;20036;-57
2023/02/08 00:32:30;;;;;;;25.33;7.35;;;28.80;75.50;;;;;;5086196;28;20036;-56
2023/02/08 00:34:57;;;;;;;25.35;6.80;;;28.80;75.40;;;;;;5086427;28;20076;-58
2023/02/08 00:37:24;;;;;;;23.48;6.35;;;28.80;75.20;;;;;;5086391;28;20221;-59
2023/02/08 00:39:50;;;;;;;29.83;6.35;;;28.80;75.00;;;;;;5087230;28;20048;-58
2023/02/08 00:42:17;;;;;;;25.15;6.72;;;28.80;75.10;;;;;;5086575;28;20082;-58
2023/02/08 00:44:44;;;;;;;31.88;7.03;;;28.80;75.10;;;;;;5086552;28;20048;-57
2023/02/08 00:47:10;;;;;;;22.95;6.68;;;28.70;75.00;;;;;;5086875;28;20308;-58
2023/02/08 00:49:37;;;;;;;26.67;6.70;;;28.80;75.00;;;;;;5086671;28;20039;-58
2023/02/08 00:52:03;;;;;;;37.42;6.75;;;28.70;74.90;;;;;;5086147;28;20104;-59
2023/02/08 00:54:31;;;;;;;39.33;7.00;;;28.70;74.80;;;;;;5086747;28;20017;-59
2023/02/08 00:56:58;;;;;;;29.15;6.40;;;28.70;74.60;;;;;;5086370;28;20040;-61
2023/02/08 00:59:25;;;;;;;39.63;6.88;;;28.70;74.70;;;;;;5085827;28;20012;-54
2023/02/08 01:01:51;;;;;;;38.90;6.55;;;28.60;74.70;;;;;;5075846;28;20021;-55
2023/02/08 01:04:18;;;;;;;31.55;6.22;;;28.60;74.70;;;;;;5080119;28;20186;-55
2023/02/08 01:06:44;;;;;;;60.47;9.00;;;28.60;74.70;;;;;;5068502;28;20083;-52
2023/02/08 01:09:11;;;;;;;35.22;7.03;;;28.60;74.60;;;;;;5066013;28;20070;-54
2023/02/08 01:11:37;;;;;;;29.15;5.90;;;28.60;74.40;;;;;;5076098;28;20073;-52
2023/02/08 01:14:04;;;;;;;20.23;5.93;;;28.60;74.50;;;;;;5074189;28;20325;-56
2023/02/08 01:16:33;;;;;;;27.67;6.15;;;28.60;74.40;;;;;;5074605;28;20052;-53
2023/02/08 01:19:04;;;;;;;18.63;5.28;;;28.60;74.40;;;;;;5074715;28;20012;-54
2023/02/08 01:21:39;;;;;;;14.05;5.70;;;28.60;74.30;;;;;;5075981;28;20133;-55
2023/02/08 01:24:06;;;;;;;16.02;4.78;;;28.60;74.70;;;;;;5071743;28;20095;-54
2023/02/08 01:26:33;;;;;;;24.45;5.70;;;28.60;74.30;;;;;;5085037;28;20040;-52
2023/02/08 01:29:00;;;;;;;19.65;5.38;;;28.60;74.40;;;;;;5085982;28;20080;-53
2023/02/08 01:31:31;;;;;;;17.27;4.75;;;28.60;74.30;;;;;;5085812;28;20083;-55
2023/02/08 01:33:59;;;;;;;15.02;4.63;;;28.60;74.30;;;;;;5086028;28;20094;-55
2023/02/08 01:36:53;;;;;;;11.57;4.70;;;28.60;74.40;;;;;;5085410;28;20070;-55
2023/02/08 01:39:19;;;;;;;15.93;5.22;;;28.60;74.30;;;;;;5085963;28;20072;-54
2023/02/08 01:41:46;;;;;;;15.60;5.43;;;28.60;74.40;;;;;;5080211;28;20020;-56
2023/02/08 01:44:12;;;;;;;51.33;7.90;;;28.50;74.50;;;;;;5077964;28;20028;-52
2023/02/08 01:46:41;;;;;;;32.30;5.95;;;28.60;74.40;;;;;;5085612;28;20078;-55
2023/02/08 01:49:13;;;;;;;41.38;7.07;;;28.50;74.50;;;;;;5084712;28;20020;-51
2023/02/08 01:51:54;;;;;;;28.63;6.30;;;28.50;74.40;;;;;;5078159;28;20103;-52
2023/02/08 01:54:27;;;;;;;29.83;5.85;;;28.50;74.50;;;;;;5075146;28;20017;-54
2023/02/08 01:56:54;;;;;;;21.40;5.70;;;28.50;74.30;;;;;;5083301;28;20036;-53
2023/02/08 01:59:33;;;;;;;22.38;5.80;;;28.50;74.20;;;;;;5085174;28;20079;-56
2023/02/08 02:02:01;;;;;;;23.05;6.07;;;28.50;74.60;;;;;;5085206;28;20020;-53
2023/02/08 02:04:29;;;;;;;18.88;6.28;;;28.50;74.10;;;;;;5085576;28;20025;-53
2023/02/08 02:06:59;;;;;;;19.13;5.45;;;28.50;73.90;;;;;;5083235;28;20044;-52
2023/02/08 02:09:57;;;;;;;18.08;5.68;;;28.50;73.60;;;;;;5065480;28;20032;-53
2023/02/08 02:12:24;;;;;;;11.23;5.28;;;28.50;73.40;;;;;;5073973;28;20054;-53
2023/02/08 02:14:51;;;;;;;17.40;4.93;;;28.40;73.30;;;;;;5084738;28;20024;-55
2023/02/08 02:17:20;;;;;;;13.10;4.63;;;28.40;72.90;;;;;;5084859;28;20024;-54
2023/02/08 02:20:25;;;;;;;21.05;6.45;;;28.40;73.10;;;;;;5084439;28;20055;-51
2023/02/08 02:23:18;;;;;;;29.05;5.57;;;28.40;73.10;;;;;;5084777;28;20060;-53
2023/02/08 02:25:51;;;;;;;25.15;6.15;;;28.40;73.00;;;;;;5076186;28;20273;-55
2023/02/08 02:28:39;;;;;;;24.70;5.55;;;28.40;73.00;;;;;;5084613;28;20024;-54
2023/02/08 02:31:35;;;;;;;15.65;4.97;;;28.40;72.70;;;;;;5079668;28;20028;-56
2023/02/08 02:34:32;;;;;;;14.88;4.70;;;28.30;72.50;;;;;;5081854;28;20085;-53
2023/02/08 02:37:11;;;;;;;13.80;4.20;;;28.30;72.60;;;;;;5078466;28;20190;-55
2023/02/08 02:40:16;;;;;;;21.27;4.53;;;28.30;72.60;;;;;;5078806;28;20016;-54
2023/02/08 02:45:48;;;;;;;22.75;4.88;;;28.30;72.70;;;;;;5083863;28;20086;-54
2023/02/08 02:48:41;;;;;;;15.95;4.53;;;28.30;72.60;;;;;;5064241;28;20028;-51
2023/02/08 02:51:37;;;;;;;14.15;4.90;;;28.20;72.40;;;;;;5064072;28;20053;-55
2023/02/08 02:54:25;;;;;;;18.48;11.00;;;28.20;72.40;;;;;;5064424;28;20051;-52
2023/02/08 02:57:02;;;;;;;17.58;9.25;;;28.20;72.50;;;;;;5064055;28;20020;-53
2023/02/08 02:59:32;;;;;;;13.73;6.95;;;28.20;72.50;;;;;;5075233;28;20226;-52
2023/02/08 03:01:59;;;;;;;11.68;5.82;;;28.10;72.10;;;;;;5084194;28;20175;-52
2023/02/08 03:04:35;;;;;;;12.02;5.38;;;28.10;71.80;;;;;;5075727;28;20317;-54
2023/02/08 03:07:01;;;;;;;15.68;5.57;;;28.20;71.80;;;;;;5063937;28;20033;-55
2023/02/08 03:09:53;;;;;;;14.20;5.45;;;28.10;71.80;;;;;;5064082;28;20316;-55
2023/02/08 03:12:27;;;;;;;13.68;4.63;;;28.10;71.80;;;;;;5064031;28;20063;-55
2023/02/08 03:15:16;;;;;;;9.38;5.88;;;28.10;71.40;;;;;;5064204;28;20021;-54
2023/02/08 03:17:51;;;;;;;13.52;5.68;;;28.10;71.20;;;;;;5063866;28;20021;-54
2023/02/08 03:20:19;;;;;;;7.15;4.40;;;28.10;71.10;;;;;;5064415;28;20036;-54
2023/02/08 03:23:12;;;;;;;11.88;4.70;;;28.10;71.10;;;;;;5064049;28;20029;-58
2023/02/08 03:26:01;;;;;;;;;;;28.10;71.00;;;;;;5063902;28;20044;-54
2023/02/08 03:28:50;;;;;;;10.63;5.40;;;28.00;70.90;;;;;;5058275;28;19901;-53
2023/02/08 03:31:32;;;;;;;9.18;5.40;;;28.00;70.70;;;;;;5063657;28;20048;-52
2023/02/08 03:34:23;;;;;;;10.57;5.35;;;28.00;70.70;;;;;;5064003;28;20043;-52
2023/02/08 03:36:58;;;;;;;8.40;5.28;;;28.00;70.60;;;;;;5063589;28;20063;-52
2023/02/08 03:39:28;;;;;;;10.98;5.18;;;28.00;70.40;;;;;;5064029;28;20021;-53
2023/02/08 03:42:03;;;;;;;7.15;4.90;;;27.90;70.40;;;;;;5063688;28;20037;-54
2023/02/08 03:45:06;;;;;;;8.38;4.88;;;28.00;70.40;;;;;;5063372;28;20040;-54
2023/02/08 03:47:41;;;;;;;12.70;5.15;;;28.00;70.30;;;;;;5061482;28;20033;-55
2023/02/08 03:50:11;;;;;;;9.25;4.68;;;27.90;70.40;;;;;;5064001;28;20017;-55
2023/02/08 03:52:38;;;;;;;9.13;4.80;;;27.90;70.40;;;;;;5063428;28;20224;-56
2023/02/08 03:55:12;;;;;;;7.72;4.20;;;27.90;70.40;;;;;;5064030;28;20024;-52
2023/02/08 03:58:04;;;;;;;8.80;4.15;;;27.90;70.20;;;;;;5063445;28;20317;-53
2023/02/08 04:00:35;;;;;;;8.13;4.03;;;27.90;70.30;;;;;;5063638;28;20317;-53
2023/02/08 04:03:12;;;;;;;9.13;3.67;;;27.90;70.40;;;;;;5063245;28;20035;-55
2023/02/08 04:05:39;;;;;;;8.43;3.40;;;27.90;70.50;;;;;;5063464;28;20029;-54
2023/02/08 04:08:06;;;;;;;7.72;3.88;;;27.90;70.50;;;;;;5063428;28;20040;-53
2023/02/08 04:10:32;;;;;;;9.70;3.90;;;27.80;70.60;;;;;;5063170;28;20031;-57
2023/02/08 04:12:59;;;;;;;9.73;4.90;;;27.80;70.70;;;;;;5063755;28;20063;-53
2023/02/08 04:15:26;;;;;;;14.00;5.47;;;27.80;70.70;;;;;;5063457;28;20052;-54
2023/02/08 04:17:53;;;;;;;21.25;6.65;;;27.80;70.90;;;;;;5063473;28;20091;-56
2023/02/08 04:20:20;;;;;;;23.50;7.65;;;27.80;71.00;;;;;;5063833;28;20044;-55
2023/02/08 04:22:47;;;;;;;17.88;7.90;;;27.80;70.90;;;;;;5063243;28;20025;-55
2023/02/08 04:25:13;;;;;;;15.18;8.23;;;27.70;70.80;;;;;;5063688;28;20028;-55
2023/02/08 04:27:40;;;;;;;16.35;8.10;;;27.80;71.00;;;;;;5063193;28;20221;-55
2023/02/08 04:30:07;;;;;;;14.95;7.93;;;27.70;70.90;;;;;;5063546;28;20091;-55
2023/02/08 04:32:34;;;;;;;17.60;7.93;;;27.70;71.00;;;;;;5062980;28;20088;-55
2023/02/08 04:35:00;;;;;;;15.00;7.93;;;27.70;71.20;;;;;;5063744;28;20173;-53
2023/02/08 04:37:27;;;;;;;14.20;8.20;;;27.70;71.30;;;;;;5063349;28;20084;-53
2023/02/08 04:39:53;;;;;;;14.25;7.80;;;27.70;71.30;;;;;;5063690;28;20036;-53
2023/02/08 04:42:20;;;;;;;14.23;8.00;;;27.70;71.20;;;;;;5063637;28;20033;-54
2023/02/08 04:44:46;;;;;;;17.00;7.78;;;27.60;71.30;;;;;;5082826;28;20056;-53
2023/02/08 04:47:13;;;;;;;12.63;6.63;;;27.60;71.30;;;;;;5086683;28;20025;-52
2023/02/08 04:49:39;;;;;;;15.55;5.80;;;27.60;71.30;;;;;;5086936;28;20092;-53
2023/02/08 04:52:06;;;;;;;12.65;5.35;;;27.60;71.30;;;;;;5086717;28;20044;-53
2023/02/08 04:54:33;;;;;;;9.95;5.18;;;27.60;71.10;;;;;;5086972;28;20039;-55
2023/02/08 04:56:59;;;;;;;16.40;5.20;;;27.60;70.90;;;;;;5086411;28;20033;-54
2023/02/08 04:59:26;;;;;;;16.83;5.30;;;27.50;70.90;;;;;;5086968;28;20024;-52
2023/02/08 05:01:52;;;;;;;15.00;5.20;;;27.50;70.80;;;;;;5086696;28;20066;-52
2023/02/08 05:04:19;;;;;;;10.13;5.03;;;27.50;70.80;;;;;;5086506;28;20029;-53
2023/02/08 05:06:45;;;;;;;12.02;4.97;;;27.50;70.80;;;;;;5086677;28;20362;-54
2023/02/08 05:09:12;;;;;;;11.82;4.78;;;27.50;70.80;;;;;;5086774;28;20032;-52
2023/02/08 05:11:39;;;;;;;11.68;4.07;;;27.50;70.80;;;;;;5086110;28;20028;-54
2023/02/08 05:14:05;;;;;;;7.93;3.95;;;27.50;70.70;;;;;;5086519;28;20023;-54
2023/02/08 05:16:32;;;;;;;7.93;3.70;;;27.50;70.70;;;;;;5086540;28;20032;-52
2023/02/08 05:18:59;;;;;;;14.93;4.25;;;27.40;70.60;;;;;;5086158;28;20047;-54
2023/02/08 05:21:25;;;;;;;11.40;3.53;;;27.40;70.50;;;;;;5086368;28;20253;-51
2023/02/08 05:23:52;;;;;;;8.32;3.50;;;27.40;70.50;;;;;;5086316;28;20021;-52
2023/02/08 05:26:18;;;;;;;7.35;3.25;;;27.40;70.50;;;;;;5086031;28;20032;-54
2023/02/08 05:28:45;;;;;;;6.93;3.83;;;27.40;70.50;;;;;;5085922;28;20099;-51
2023/02/08 05:31:20;;;;;;;8.52;3.45;;;27.40;70.60;;;;;;5085843;28;20032;-55
2023/02/08 05:33:47;;;;;;;6.80;3.42;;;27.30;70.40;;;;;;5085907;28;20036;-52
2023/02/08 05:36:14;;;;;;;7.30;3.67;;;27.30;70.40;;;;;;5085874;28;20040;-53
2023/02/08 05:38:40;;;;;;;5.93;3.53;;;27.30;70.50;;;;;;5086175;28;20035;-52
2023/02/08 05:41:07;;;;;;;6.63;3.47;;;27.30;70.50;;;;;;5085719;28;20096;-53
2023/02/08 05:43:33;;;;;;;6.40;3.40;;;27.30;70.70;;;;;;5085968;28;20031;-52
2023/02/08 05:46:00;;;;;;;6.40;3.58;;;27.30;70.80;;;;;;5085467;28;20237;-52
2023/02/08 05:48:30;;;;;;;12.00;4.20;;;27.30;70.80;;;;;;5085459;28;20224;-53
2023/02/08 05:50:58;;;;;;;7.35;3.65;;;27.30;70.60;;;;;;5085597;28;20036;-54
2023/02/08 05:53:25;;;;;;;7.78;3.92;;;27.30;70.50;;;;;;5085486;28;20213;-56
2023/02/08 05:55:51;;;;;;;6.07;3.35;;;27.30;70.50;;;;;;5085432;28;20209;-53
2023/02/08 05:58:18;;;;;;;7.57;3.83;;;27.30;70.40;;;;;;5085352;28;20086;-52
2023/02/08 06:00:45;;;;;;;9.07;3.83;;;27.30;70.20;;;;;;5085520;28;20065;-53
2023/02/08 06:03:11;;;;;;;6.72;3.55;;;27.30;70.10;;;;;;5085094;28;20313;-52
2023/02/08 06:05:39;;;;;;;5.85;3.55;;;27.30;70.00;;;;;;5085237;28;20028;-53
2023/02/08 06:08:06;;;;;;;8.18;3.92;;;27.30;69.80;;;;;;5085146;28;20150;-55
2023/02/08 06:10:33;;;;;;;7.88;3.65;;;27.20;69.70;;;;;;5084983;28;20091;-54
2023/02/08 06:13:00;;;;;;;5.38;3.28;;;27.30;69.80;;;;;;5085414;28;20271;-54
2023/02/08 06:15:27;;;;;;;5.90;3.60;;;27.20;69.80;;;;;;5085028;28;20032;-53
2023/02/08 06:17:53;;;;;;;6.30;3.88;;;27.20;69.60;;;;;;5084898;28;20300;-57
2023/02/08 06:20:20;;;;;;;7.97;4.40;;;27.20;69.50;;;;;;5085480;28;20113;-53
2023/02/08 06:22:47;;;;;;;8.48;4.15;;;27.20;69.50;;;;;;5084944;28;20032;-51
2023/02/08 06:25:14;;;;;;;6.07;3.75;;;27.20;69.50;;;;;;5085291;28;20048;-53
2023/02/08 06:27:40;;;;;;;6.72;3.67;;;27.20;69.50;;;;;;5084812;28;20051;-55
2023/02/08 06:30:07;;;;;;;5.93;3.40;;;27.20;69.50;;;;;;5085280;28;20100;-55
2023/02/08 06:32:33;;;;;;;9.50;3.53;;;27.20;69.40;;;;;;5084526;28;20031;-53
2023/02/08 06:35:00;;;;;;;5.97;3.50;;;27.20;69.30;;;;;;5085186;28;20058;-53
2023/02/08 06:37:27;;;;;;;6.72;4.03;;;27.20;69.10;;;;;;5084660;28;20021;-54
2023/02/08 06:39:53;;;;;;;5.68;3.63;;;27.20;69.10;;;;;;5084862;28;20036;-52
2023/02/08 06:42:20;;;;;;;6.80;3.97;;;27.20;69.00;;;;;;5084670;28;20435;-52
2023/02/08 06:44:48;;;;;;;7.05;3.67;;;27.20;68.90;;;;;;5084491;28;20075;-53
2023/02/08 06:47:15;;;;;;;6.95;3.60;;;27.20;68.90;;;;;;5084395;28;20367;-50
2023/02/08 06:49:44;;;;;;;6.10;4.40;;;27.20;69.00;;;;;;5084702;28;20036;-54
2023/02/08 06:52:11;;;;;;;6.20;4.05;;;27.20;68.90;;;;;;5084340;28;20343;-56
2023/02/08 06:54:37;;;;;;;6.40;4.07;;;27.20;69.00;;;;;;5084778;28;20032;-52
2023/02/08 06:57:07;;;;;;;6.38;3.47;;;27.20;69.10;;;;;;5084299;28;20080;-54
2023/02/08 06:59:34;;;;;;;8.95;3.88;;;27.10;69.10;;;;;;5084599;28;20025;-53
2023/02/08 07:02:01;;;;;;;7.45;3.95;;;27.10;69.30;;;;;;5084143;28;20020;-55
2023/02/08 07:04:27;;;;;;;11.35;4.18;;;27.10;69.40;;;;;;5084674;28;20036;-53
2023/02/08 07:06:54;;;;;;;7.18;4.13;;;27.10;69.40;;;;;;5083768;28;20355;-54
2023/02/08 07:09:20;;;;;;;5.55;3.75;;;27.10;69.50;;;;;;5084475;28;20044;-57
2023/02/08 07:11:47;;;;;;;4.50;3.70;;;27.00;69.30;;;;;;5084027;28;20103;-55
2023/02/08 07:14:15;;;;;;;8.63;4.05;;;27.00;69.40;;;;;;5084070;28;20020;-52
2023/02/08 07:16:41;;;;;;;7.15;3.83;;;27.00;69.40;;;;;;5084373;28;20020;-54
2023/02/08 07:19:08;;;;;;;6.13;3.90;;;27.00;69.40;;;;;;5084158;28;20028;-52
2023/02/08 07:21:35;;;;;;;8.02;3.92;;;27.00;69.40;;;;;;5084241;28;20028;-57
2023/02/08 07:24:01;;;;;;;5.45;3.50;;;27.00;69.40;;;;;;5084201;28;20040;-51
2023/02/08 07:26:28;;;;;;;7.65;3.83;;;26.90;69.50;;;;;;5083916;28;20235;-53
2023/02/08 07:28:54;;;;;;;8.73;4.20;;;27.00;69.70;;;;;;5084356;28;20353;-53
2023/02/08 07:31:21;;;;;;;7.47;3.92;;;26.90;69.80;;;;;;5083806;28;20043;-54
2023/02/08 07:33:48;;;;;;;8.63;4.03;;;26.90;69.90;;;;;;5082686;28;20059;-53
2023/02/08 07:36:15;;;;;;;6.80;4.45;;;26.90;70.00;;;;;;5083836;28;20063;-53
2023/02/08 07:38:41;;;;;;;7.10;4.13;;;26.90;70.00;;;;;;5084057;28;20048;-53
2023/02/08 07:41:12;;;;;;;9.48;3.92;;;26.90;70.00;;;;;;5083668;28;20099;-53
2023/02/08 07:43:40;;;;;;;6.05;3.90;;;26.90;70.10;;;;;;5075397;28;20313;-55
2023/02/08 07:46:08;;;;;;;10.50;4.00;;;26.90;70.20;;;;;;5080248;28;20057;-53
2023/02/08 07:48:35;;;;;;;13.50;4.10;;;26.90;70.40;;;;;;5064871;28;20040;-52
2023/02/08 07:51:02;;;;;;;9.40;3.97;;;26.80;70.40;;;;;;5063550;28;20024;-52
2023/02/08 07:53:28;;;;;;;10.88;4.38;;;26.80;70.60;;;;;;5063620;28;20025;-52
2023/02/08 07:55:55;;;;;;;5.40;3.97;;;26.80;70.80;;;;;;5063672;28;20025;-51
2023/02/08 07:58:22;;;;;;;8.05;3.88;;;26.80;70.90;;;;;;5063510;28;20088;-51
2023/02/08 08:00:49;;;;;;;6.10;3.85;;;26.80;71.00;;;;;;5063679;28;20229;-53
2023/02/08 08:03:15;;;;;;;7.63;3.72;;;26.80;71.10;;;;;;5063695;28;20258;-51
2023/02/08 08:05:42;;;;;;;8.90;3.83;;;26.70;71.00;;;;;;5063521;28;20037;-51
2023/02/08 08:08:10;;;;;;;6.70;4.22;;;26.70;71.00;;;;;;5063504;28;20025;-52
2023/02/08 08:10:38;;;;;;;7.70;4.00;;;26.70;71.10;;;;;;5063309;28;20037;-52
2023/02/08 08:13:05;;;;;;;7.97;3.92;;;26.70;71.10;;;;;;5063441;28;20025;-52
2023/02/08 08:15:31;;;;;;;6.60;3.60;;;26.70;71.30;;;;;;5063452;28;20021;-51
2023/02/08 08:17:58;;;;;;;6.70;3.80;;;26.70;71.40;;;;;;5064809;28;20025;-51
2023/02/08 08:20:25;;;;;;;7.25;3.83;;;26.70;71.40;;;;;;5067789;28;20075;-56
2023/02/08 08:22:52;;;;;;;4.88;3.75;;;26.60;71.40;;;;;;5067298;28;20059;-52
2023/02/08 08:25:19;;;;;;;6.32;4.10;;;26.70;71.70;;;;;;5067527;28;20259;-57
2023/02/08 08:27:45;;;;;;;4.30;3.83;;;26.60;71.80;;;;;;5067216;28;20021;-56
2023/02/08 08:30:14;;;;;;;6.90;3.95;;;26.60;71.90;;;;;;5067559;28;20041;-53
2023/02/08 08:32:41;;;;;;;6.95;3.95;;;26.60;72.10;;;;;;5066838;28;20024;-52
2023/02/08 08:35:10;;;;;;;5.97;3.85;;;26.60;72.30;;;;;;5067480;28;20029;-52
2023/02/08 08:37:37;;;;;;;8.55;3.70;;;26.60;72.50;;;;;;5067061;28;20025;-52
2023/02/08 08:40:05;;;;;;;6.22;3.83;;;26.50;72.50;;;;;;5067265;28;20029;-52
2023/02/08 08:42:33;;;;;;;7.53;4.10;;;26.60;72.70;;;;;;5066823;28;20394;-52
2023/02/08 08:45:00;;;;;;;6.38;4.05;;;26.50;72.70;;;;;;5066577;28;20048;-52
2023/02/08 08:47:27;;;;;;;6.07;3.47;;;26.50;72.80;;;;;;5066661;28;20021;-54
2023/02/08 08:49:53;;;;;;;11.57;4.03;;;26.50;72.90;;;;;;5067138;28;20056;-55
2023/02/08 08:52:20;;;;;;;9.73;4.47;;;26.40;72.90;;;;;;5066800;28;20295;-52
2023/02/08 08:54:46;;;;;;;9.50;4.90;;;26.40;72.90;;;;;;5067070;28;20036;-54
2023/02/08 08:57:13;;;;;;;6.57;4.55;;;26.40;73.00;;;;;;5066624;28;20017;-58
2023/02/08 08:59:39;;;;;;;9.25;4.32;;;26.40;73.10;;;;;;5066884;28;20048;-51
2023/02/08 09:02:06;;;;;;;8.73;4.43;;;26.30;73.00;;;;;;5066337;28;20033;-54
2023/02/08 09:04:33;;;;;;;7.70;4.40;;;26.30;73.10;;;;;;5066906;28;20317;-51
2023/02/08 09:07:00;;;;;;;6.60;4.20;;;26.30;73.10;;;;;;5066692;28;20286;-53
2023/02/08 09:09:26;;;;;;;11.77;4.35;;;26.30;73.10;;;;;;5066531;28;20052;-52
2023/02/08 09:11:53;;;;;;;11.05;4.43;;;26.30;73.00;;;;;;5066454;28;20027;-58
2023/02/08 09:14:19;;;;;;;11.77;4.85;;;26.30;73.00;;;;;;5066487;28;20033;-51
2023/02/08 09:16:47;;;;;;;16.95;5.68;;;26.30;72.90;;;;;;5066141;28;20301;-52
2023/02/08 09:19:15;;;;;;;25.33;5.63;;;26.20;72.90;;;;;;5066390;28;20032;-53
2023/02/08 09:21:42;;;;;;;16.50;5.57;;;26.20;72.80;;;;;;5066092;28;20031;-53
2023/02/08 09:24:09;;;;;;;13.82;5.22;;;26.20;72.70;;;;;;5065876;28;20033;-52
2023/02/08 09:26:35;;;;;;;15.68;4.60;;;26.20;72.40;;;;;;5066064;28;20033;-53
2023/02/08 09:29:02;;;;;;;12.45;5.30;;;26.20;72.10;;;;;;5065960;28;20096;-53
2023/02/08 09:31:31;;;;;;;16.23;5.18;;;26.10;72.10;;;;;;5065723;28;20029;-58
2023/02/08 09:34:00;;;;;;;11.73;4.95;;;26.10;72.20;;;;;;5065929;28;20028;-52
2023/02/08 09:36:31;;;;;;;9.32;5.15;;;26.10;72.20;;;;;;5065900;28;20028;-54
2023/02/08 09:39:03;;;;;;;13.00;5.22;;;26.10;72.10;;;;;;5065856;28;20033;-52
2023/02/08 09:41:41;;;;;;;10.48;5.20;;;26.10;72.30;;;;;;5065796;28;20212;-50
2023/02/08 09:44:45;;;;;;;12.95;5.05;;;26.10;72.50;;;;;;5065617;28;20224;-53
2023/02/08 09:47:21;;;;;;;9.82;4.97;;;26.00;72.60;;;;;;5084227;28;20031;-53
2023/02/08 09:50:14;;;;;;;7.05;4.47;;;26.00;72.60;;;;;;5085876;28;20040;-51
2023/02/08 09:52:51;;;;;;;6.57;4.97;;;26.00;72.80;;;;;;5085095;28;20263;-53
2023/02/08 09:55:36;;;;;;;10.60;5.28;;;26.00;72.90;;;;;;5086034;28;20393;-51
2023/02/08 09:58:12;;;;;;;8.23;4.88;;;26.00;73.00;;;;;;5085279;28;20048;-51
2023/02/08 10:00:43;;;;;;;10.60;5.13;;;26.00;73.10;;;;;;5085438;28;20047;-51
2023/02/08 10:03:54;;;;;;;10.15;5.88;;;25.90;73.20;;;;;;5085190;28;20023;-54
2023/02/08 10:06:21;;;;;;;10.30;5.53;;;25.90;73.40;;;;;;5084655;28;20051;-53
2023/02/08 10:08:51;;;;;;;10.68;5.47;;;25.90;73.60;;;;;;5084618;28;20054;-55
2023/02/08 10:11:48;;;;;;;32.30;6.50;;;25.80;73.80;;;;;;5082555;28;20036;-55
2023/02/08 10:14:26;;;;;;;29.60;6.80;;;25.80;73.90;;;;;;5085383;28;20028;-54
2023/02/08 10:16:59;;;;;;;20.05;6.65;;;25.80;74.10;;;;;;5084985;28;20108;-55
2023/02/08 10:19:54;;;;;;;14.38;6.47;;;25.80;74.00;;;;;;5085265;28;20251;-53
2023/02/08 10:22:38;;;;;;;16.35;6.90;;;25.80;74.10;;;;;;5085227;28;20319;-54
2023/02/08 10:25:24;;;;;;;22.17;6.50;;;25.80;74.10;;;;;;5085428;28;20169;-54
2023/02/08 10:28:22;;;;;;;25.65;6.70;;;25.70;74.20;;;;;;5084109;28;20098;-55
2023/02/08 10:31:05;;;;;;;21.65;7.95;;;25.70;74.40;;;;;;5064629;28;20333;-54
2023/02/08 10:33:45;;;;;;;21.70;8.43;;;25.70;74.50;;;;;;5064999;28;20097;-51
2023/02/08 10:36:19;;;;;;;14.13;7.25;;;25.70;74.50;;;;;;5064763;28;20028;-54
2023/02/08 10:38:50;;;;;;;14.20;6.82;;;25.70;74.70;;;;;;5064767;28;20067;-59
2023/02/08 10:41:28;;;;;;;23.15;7.40;;;25.70;74.70;;;;;;5063964;28;20096;-55
2023/02/08 10:44:01;;;;;;;28.05;7.72;;;25.70;74.90;;;;;;5064760;28;20105;-52
2023/02/08 10:46:37;;;;;;;21.73;6.38;;;25.70;75.00;;;;;;5082109;28;20216;-55
2023/02/08 10:49:49;;;;;;;23.50;7.03;;;25.70;75.00;;;;;;5084779;28;20051;-53
2023/02/08 10:52:15;;;;;;;39.22;8.40;;;25.60;74.90;;;;;;5013135;28;20042;-54
2023/02/08 10:54:42;;;;;;;47.42;10.05;;;25.60;74.70;;;;;;5084487;28;20035;-56
2023/02/08 10:57:28;;;;;;;32.58;12.00;;;25.60;74.60;;;;;;5084399;28;20020;-53
2023/02/08 11:00:08;;;;;;;35.10;11.30;;;25.60;74.50;;;;;;5078810;28;20033;-53
2023/02/08 11:02:41;;;;;;;35.50;10.55;;;25.60;74.50;;;;;;5064534;28;20025;-52
2023/02/08 11:05:11;;;;;;;30.27;9.65;;;25.60;74.40;;;;;;5064569;28;20036;-50
2023/02/08 11:07:38;;;;;;;36.58;10.25;;;25.60;74.40;;;;;;5064009;28;20021;-54
2023/02/08 11:10:21;;;;;;;45.70;10.77;;;25.60;74.60;;;;;;5074097;28;20059;-52
2023/02/08 11:13:19;;;;;;;41.42;10.10;;;25.60;74.80;;;;;;5073250;28;20325;-54
2023/02/08 11:15:52;;;;;;;37.63;10.07;;;25.60;74.90;;;;;;5083173;28;20086;-54
2023/02/08 11:18:24;;;;;;;31.73;9.73;;;25.60;74.90;;;;;;5083712;28;20053;-55
2023/02/08 11:20:55;;;;;;;34.50;9.50;;;25.60;74.90;;;;;;5083989;28;20034;-54
2023/02/08 11:23:37;;;;;;;40.13;9.43;;;25.60;75.10;;;;;;5084239;28;20281;-56
2023/02/08 11:26:32;;;;;;;35.88;10.25;;;25.60;75.20;;;;;;5079722;28;20028;-55
2023/02/08 11:29:17;;;;;;;45.95;9.73;;;25.60;75.20;;;;;;5084058;28;20024;-56
2023/02/08 11:31:57;;;;;;;54.55;9.57;;;25.60;74.90;;;;;;5083624;28;20310;-57
2023/02/08 11:34:37;;;;;;;52.17;10.77;;;25.70;74.50;;;;;;5083686;28;20078;-55
2023/02/08 11:37:15;;;;;;;56.03;15.38;;;25.70;74.60;;;;;;5066241;28;20048;-56
2023/02/08 11:39:48;;;;;;;56.63;13.80;;;25.70;74.50;;;;;;5063352;28;20021;-58
2023/02/08 11:42:43;;;;;;;50.17;12.63;;;25.70;74.70;;;;;;5062978;28;20025;-59
2023/02/08 11:45:28;;;;;;;48.40;11.50;;;25.70;74.80;;;;;;5057673;28;20037;-58
2023/02/08 11:47:55;;;;;;;56.08;11.00;;;25.70;74.90;;;;;;5063344;28;20266;-60
2023/02/08 11:50:40;;;;;;;43.47;10.60;;;25.70;74.80;;;;;;5064206;28;20036;-59
2023/02/08 11:53:22;;;;;;;33.75;9.25;;;25.70;74.70;;;;;;5067716;28;20088;-62
2023/02/08 11:56:04;;;;;;;47.83;8.75;;;25.70;74.80;;;;;;5066845;28;20100;-60
2023/02/08 11:58:31;;;;;;;33.08;8.75;;;25.70;74.90;;;;;;5067933;28;20221;-58
2023/02/08 12:01:01;;;;;;;30.48;8.18;;;25.70;74.70;;;;;;5068308;28;20056;-57
2023/02/08 12:03:32;;;;;;;37.10;7.45;;;25.70;74.60;;;;;;5068731;28;20306;-58
2023/02/08 12:06:17;;;;;;;28.47;7.90;;;25.80;74.50;;;;;;5068174;28;20031;-58
2023/02/08 12:09:02;;;;;;;26.52;7.00;;;25.80;74.20;;;;;;5068303;28;20037;-58
2023/02/08 12:11:49;;;;;;;31.08;7.45;;;25.90;74.10;;;;;;5067941;28;20028;-58
2023/02/08 12:14:52;;;;;;;23.70;6.10;;;26.00;74.00;;;;;;5068014;28;20053;-59
2023/02/08 12:17:34;;;;;;;21.52;6.53;;;26.00;73.80;;;;;;5067772;28;20372;-58
2023/02/08 12:20:14;;;;;;;19.35;5.90;;;26.00;73.70;;;;;;5068146;28;20106;-61
2023/02/08 12:23:05;;;;;;;19.13;6.40;;;26.10;73.50;;;;;;5068127;28;20021;-60
2023/02/08 12:25:55;;;;;;;13.85;5.93;;;26.20;73.50;;;;;;5067969;28;20041;-59
2023/02/08 12:28:59;;;;;;;16.20;5.07;;;26.20;73.50;;;;;;5067184;28;20100;-58
2023/02/08 12:32:05;;;;;;;17.67;4.97;;;26.30;73.30;;;;;;5067632;28;20185;-57
2023/02/08 12:34:56;;;;;;;11.73;4.45;;;26.30;73.00;;;;;;5068118;28;20059;-58
2023/02/08 12:40:49;;;;;;;15.00;4.90;;;26.40;73.20;;;;;;5068122;28;20044;-59
2023/02/08 12:44:01;;;;;;;14.05;4.45;;;26.40;73.20;;;;;;5067263;28;20040;-59
2023/02/08 12:46:45;;;;;;;15.88;5.20;;;26.50;73.30;;;;;;5056092;28;20114;-58
2023/02/08 12:49:32;;;;;;;10.25;4.53;;;26.50;73.60;;;;;;5067276;28;20328;-59
2023/02/08 12:52:29;;;;;;;13.10;4.80;;;26.60;73.50;;;;;;5067265;28;20060;-58
2023/02/08 12:55:12;;;;;;;12.27;4.47;;;26.60;73.30;;;;;;5067637;28;20083;-58
2023/02/08 12:57:42;;;;;;;10.90;4.47;;;26.60;73.10;;;;;;5067003;28;20029;-59
2023/02/08 13:00:20;;;;;;;13.45;4.60;;;26.60;73.00;;;;;;5066742;28;20052;-59
2023/02/08 13:03:12;;;;;;;16.38;4.70;;;26.70;73.10;;;;;;5066666;28;20029;-58
2023/02/08 13:05:44;;;;;;;12.90;4.90;;;26.70;73.00;;;;;;5066957;28;20047;-60
2023/02/08 13:08:22;;;;;;;10.97;3.90;;;26.80;73.00;;;;;;5066752;28;20036;-58
2023/02/08 13:10:57;;;;;;;12.63;4.03;;;26.80;73.00;;;;;;5066216;28;20347;-59
2023/02/08 13:13:34;;;;;;;12.90;4.35;;;26.90;72.90;;;;;;5066490;28;20040;-60
2023/02/08 13:16:15;;;;;;;15.15;4.50;;;26.90;72.70;;;;;;5066393;28;20035;-60